Terminal Aerodrome Forecast
Issued by NWS

Home | Current Version | Previous Version | Text Only | Print | Product List | Glossary On
Versions: 1 2 3 4 5 6 7 8 9 10 11 12 13 14
000
FTUS45 KABQ 201100 RRA
TAFSAF
TAF
KSAF 201140Z 2012/2112 02007KT P6SM FEW025
     FM202030 12014G24KT P6SM SKC
     FM210030 12020G30KT P6SM SCT050
     FM210900 12009G20KT P6SM VCSH SCT035 BKN060=

USA.gov is the U.S. government's official web portal to all federal, state and local government web resources and services.